sensor_id;sensor_type;location;lat;lon;timestamp;pressure;altitude;pressure_sealevel;temperature;humidity
30819;BME280;17546;42.674;23.284;2023-03-18T00:00:10;95129.06;;;10.50;40.69
30819;BME280;17546;42.674;23.284;2023-03-18T00:02:36;95135.88;;;10.49;40.74
30819;BME280;17546;42.674;23.284;2023-03-18T00:05:04;95104.03;;;10.39;40.61
30819;BME280;17546;42.674;23.284;2023-03-18T00:07:30;95124.28;;;10.51;40.67
30819;BME280;17546;42.674;23.284;2023-03-18T00:09:55;95124.28;;;10.51;40.70
30819;BME280;17546;42.674;23.284;2023-03-18T00:12:22;95099.28;;;10.25;40.99
30819;BME280;17546;42.674;23.284;2023-03-18T00:14:47;95087.41;;;10.19;40.99
30819;BME280;17546;42.674;23.284;2023-03-18T00:17:13;95090.03;;;10.28;40.85
30819;BME280;17546;42.674;23.284;2023-03-18T00:19:39;95085.25;;;10.28;40.54
30819;BME280;17546;42.674;23.284;2023-03-18T00:22:05;95107.50;;;10.34;40.98
30819;BME280;17546;42.674;23.284;2023-03-18T00:24:32;95086.06;;;10.14;40.89
30819;BME280;17546;42.674;23.284;2023-03-18T00:26:58;95111.06;;;10.40;41.01
30819;BME280;17546;42.674;23.284;2023-03-18T00:29:23;95093.38;;;10.32;41.17
30819;BME280;17546;42.674;23.284;2023-03-18T00:31:49;95095.00;;;10.24;41.25
30819;BME280;17546;42.674;23.284;2023-03-18T00:34:16;95066.66;;;10.08;41.25
30819;BME280;17546;42.674;23.284;2023-03-18T00:36:42;95065.53;;;10.00;41.40
30819;BME280;17546;42.674;23.284;2023-03-18T00:39:24;95076.34;;;10.19;41.02
30819;BME280;17546;42.674;23.284;2023-03-18T00:41:53;95058.91;;;10.12;40.93
30819;BME280;17546;42.674;23.284;2023-03-18T00:44:18;95080.69;;;10.25;41.05
30819;BME280;17546;42.674;23.284;2023-03-18T00:46:47;95078.81;;;10.17;41.26
30819;BME280;17546;42.674;23.284;2023-03-18T00:49:12;95074.19;;;10.08;41.11
30819;BME280;17546;42.674;23.284;2023-03-18T00:51:38;95073.91;;;10.06;41.30
30819;BME280;17546;42.674;23.284;2023-03-18T00:54:09;95047.81;;;9.92;41.28
30819;BME280;17546;42.674;23.284;2023-03-18T00:56:36;95075.25;;;9.90;41.74
30819;BME280;17546;42.674;23.284;2023-03-18T00:59:02;95054.75;;;9.82;41.47
30819;BME280;17546;42.674;23.284;2023-03-18T01:01:28;95058.50;;;9.99;41.53
30819;BME280;17546;42.674;23.284;2023-03-18T01:03:55;95063.59;;;10.06;41.09
30819;BME280;17546;42.674;23.284;2023-03-18T01:06:25;95033.03;;;9.95;41.20
30819;BME280;17546;42.674;23.284;2023-03-18T01:08:53;95065.78;;;10.23;41.24
30819;BME280;17546;42.674;23.284;2023-03-18T01:11:19;95066.22;;;10.16;41.35
30819;BME280;17546;42.674;23.284;2023-03-18T01:13:49;95065.91;;;10.08;41.46
30819;BME280;17546;42.674;23.284;2023-03-18T01:16:15;95029.28;;;9.98;41.44
30819;BME280;17546;42.674;23.284;2023-03-18T01:18:40;95031.09;;;10.01;41.45
30819;BME280;17546;42.674;23.284;2023-03-18T01:21:07;95054.88;;;10.13;41.68
30819;BME280;17546;42.674;23.284;2023-03-18T01:23:33;95022.66;;;9.90;41.94
30819;BME280;17546;42.674;23.284;2023-03-18T01:26:00;95036.19;;;10.08;41.51
30819;BME280;17546;42.674;23.284;2023-03-18T01:28:25;95047.53;;;10.10;41.57
30819;BME280;17546;42.674;23.284;2023-03-18T01:30:51;95033.03;;;9.95;42.17
30819;BME280;17546;42.674;23.284;2023-03-18T01:33:17;95033.72;;;10.10;41.47
30819;BME280;17546;42.674;23.284;2023-03-18T01:35:44;95049.72;;;10.27;41.71
30819;BME280;17546;42.674;23.284;2023-03-18T01:38:12;95045.72;;;10.28;41.46
30819;BME280;17546;42.674;23.284;2023-03-18T01:40:38;95020.97;;;10.19;40.99
30819;BME280;17546;42.674;23.284;2023-03-18T01:45:36;95046.91;;;10.21;41.48
30819;BME280;17546;42.674;23.284;2023-03-18T01:48:03;95038.53;;;10.16;41.21
30819;BME280;17546;42.674;23.284;2023-03-18T01:50:34;95023.19;;;10.14;41.01
30819;BME280;17546;42.674;23.284;2023-03-18T01:53:05;95042.47;;;10.29;41.13
30819;BME280;17546;42.674;23.284;2023-03-18T01:55:31;95041.16;;;10.25;41.08
30819;BME280;17546;42.674;23.284;2023-03-18T01:57:58;95019.63;;;10.14;40.81
30819;BME280;17546;42.674;23.284;2023-03-18T02:00:26;95036.03;;;10.18;40.91
30819;BME280;17546;42.674;23.284;2023-03-18T02:02:53;95007.69;;;10.02;40.94
30819;BME280;17546;42.674;23.284;2023-03-18T02:05:24;95014.75;;;10.03;40.75
30819;BME280;17546;42.674;23.284;2023-03-18T02:07:51;95009.34;;;9.94;41.13
30819;BME280;17546;42.674;23.284;2023-03-18T02:10:25;95031.22;;;10.12;40.89
30819;BME280;17546;42.674;23.284;2023-03-18T02:13:01;95029.75;;;10.17;40.85
30819;BME280;17546;42.674;23.284;2023-03-18T02:15:29;95033.22;;;10.12;41.12
30819;BME280;17546;42.674;23.284;2023-03-18T02:18:11;95020.03;;;10.01;41.25
30819;BME280;17546;42.674;23.284;2023-03-18T02:28:40;95023.16;;;9.68;41.88
30819;BME280;17546;42.674;23.284;2023-03-18T02:31:09;95007.03;;;9.46;41.94
30819;BME280;17546;42.674;23.284;2023-03-18T02:33:37;95001.22;;;9.64;41.76
30819;BME280;17546;42.674;23.284;2023-03-18T02:36:09;94968.72;;;9.39;41.86
30819;BME280;17546;42.674;23.284;2023-03-18T02:38:42;95014.50;;;9.60;42.04
30819;BME280;17546;42.674;23.284;2023-03-18T02:41:37;95023.06;;;9.62;41.95
30819;BME280;17546;42.674;23.284;2023-03-18T02:44:03;95030.81;;;9.58;42.46
30819;BME280;17546;42.674;23.284;2023-03-18T02:49:21;95002.03;;;9.50;41.98
30819;BME280;17546;42.674;23.284;2023-03-18T02:51:47;95031.19;;;9.66;42.28
30819;BME280;17546;42.674;23.284;2023-03-18T02:54:20;95006.34;;;9.51;42.27
30819;BME280;17546;42.674;23.284;2023-03-18T02:56:46;95015.75;;;9.59;42.50
30819;BME280;17546;42.674;23.284;2023-03-18T02:59:12;95025.56;;;9.60;42.40
30819;BME280;17546;42.674;23.284;2023-03-18T03:01:39;95007.38;;;9.54;42.22
30819;BME280;17546;42.674;23.284;2023-03-18T03:04:05;94996.88;;;9.58;41.94
30819;BME280;17546;42.674;23.284;2023-03-18T03:06:32;95022.50;;;9.79;42.12
30819;BME280;17546;42.674;23.284;2023-03-18T03:08:57;95016.63;;;9.71;41.60
30819;BME280;17546;42.674;23.284;2023-03-18T03:11:26;95025.00;;;9.77;41.70
30819;BME280;17546;42.674;23.284;2023-03-18T03:13:52;95008.91;;;9.55;42.18
30819;BME280;17546;42.674;23.284;2023-03-18T03:16:18;94999.81;;;9.34;42.09
30819;BME280;17546;42.674;23.284;2023-03-18T03:18:43;95007.22;;;9.42;42.20
30819;BME280;17546;42.674;23.284;2023-03-18T03:21:10;95030.81;;;9.58;42.33
30819;BME280;17546;42.674;23.284;2023-03-18T03:23:37;95001.50;;;9.46;42.20
30819;BME280;17546;42.674;23.284;2023-03-18T03:26:03;95030.63;;;9.62;42.24
30819;BME280;17546;42.674;23.284;2023-03-18T03:28:29;95020.78;;;9.40;42.17
30819;BME280;17546;42.674;23.284;2023-03-18T03:30:57;95029.63;;;9.44;42.33
30819;BME280;17546;42.674;23.284;2023-03-18T03:33:24;95006.25;;;9.45;42.17
30819;BME280;17546;42.674;23.284;2023-03-18T03:35:50;95017.97;;;9.55;42.02
30819;BME280;17546;42.674;23.284;2023-03-18T03:38:16;95048.44;;;9.61;42.20
30819;BME280;17546;42.674;23.284;2023-03-18T03:40:43;95031.13;;;9.45;42.09
30819;BME280;17546;42.674;23.284;2023-03-18T03:43:13;95045.66;;;9.61;42.16
30819;BME280;17546;42.674;23.284;2023-03-18T03:45:40;95040.31;;;9.37;42.41
30819;BME280;17546;42.674;23.284;2023-03-18T03:48:06;95048.22;;;9.44;42.39
30819;BME280;17546;42.674;23.284;2023-03-18T03:50:32;95030.09;;;9.43;42.01
30819;BME280;17546;42.674;23.284;2023-03-18T03:52:58;95048.22;;;9.44;42.35
30819;BME280;17546;42.674;23.284;2023-03-18T03:55:23;95027.47;;;9.34;42.46
30819;BME280;17546;42.674;23.284;2023-03-18T03:57:49;95030.31;;;9.39;41.97
30819;BME280;17546;42.674;23.284;2023-03-18T04:00:19;95024.78;;;9.39;42.17
30819;BME280;17546;42.674;23.284;2023-03-18T04:02:45;95038.25;;;9.52;41.96
30819;BME280;17546;42.674;23.284;2023-03-18T04:05:13;95033.16;;;9.45;42.02
30819;BME280;17546;42.674;23.284;2023-03-18T04:07:39;95054.28;;;9.48;42.01
30819;BME280;17546;42.674;23.284;2023-03-18T04:10:06;95055.56;;;9.47;42.44
30819;BME280;17546;42.674;23.284;2023-03-18T04:12:34;95050.31;;;9.49;41.81
30819;BME280;17546;42.674;23.284;2023-03-18T04:15:00;95060.53;;;9.43;42.06
30819;BME280;17546;42.674;23.284;2023-03-18T04:17:25;95061.63;;;9.30;42.30
30819;BME280;17546;42.674;23.284;2023-03-18T04:19:51;95060.38;;;9.31;42.02
30819;BME280;17546;42.674;23.284;2023-03-18T04:22:17;95044.69;;;9.08;42.33
30819;BME280;17546;42.674;23.284;2023-03-18T04:24:43;95063.88;;;9.32;42.23
30819;BME280;17546;42.674;23.284;2023-03-18T04:27:09;95053.41;;;9.21;42.00
30819;BME280;17546;42.674;23.284;2023-03-18T04:29:35;95078.66;;;9.44;42.03
30819;BME280;17546;42.674;23.284;2023-03-18T04:32:01;95080.84;;;9.40;42.48
30819;BME280;17546;42.674;23.284;2023-03-18T04:34:26;95073.44;;;9.31;42.12
30819;BME280;17546;42.674;23.284;2023-03-18T04:36:52;95087.13;;;9.40;42.13
30819;BME280;17546;42.674;23.284;2023-03-18T04:39:17;95063.84;;;9.12;42.22
30819;BME280;17546;42.674;23.284;2023-03-18T04:41:42;95067.91;;;9.16;42.33
30819;BME280;17546;42.674;23.284;2023-03-18T04:44:08;95088.44;;;9.45;42.12
30819;BME280;17546;42.674;23.284;2023-03-18T04:46:33;95091.16;;;9.39;41.95
30819;BME280;17546;42.674;23.284;2023-03-18T04:48:59;95100.50;;;9.42;41.88
30819;BME280;17546;42.674;23.284;2023-03-18T04:51:24;95089.06;;;9.34;42.49
30819;BME280;17546;42.674;23.284;2023-03-18T04:53:50;95100.84;;;9.49;42.05
30819;BME280;17546;42.674;23.284;2023-03-18T04:56:16;95067.53;;;9.23;42.13
30819;BME280;17546;42.674;23.284;2023-03-18T04:58:43;95075.16;;;9.28;42.07
30819;BME280;17546;42.674;23.284;2023-03-18T05:01:08;95089.81;;;9.35;42.31
30819;BME280;17546;42.674;23.284;2023-03-18T05:03:34;95100.06;;;9.49;41.83
30819;BME280;17546;42.674;23.284;2023-03-18T05:06:00;95098.66;;;9.39;42.35
30819;BME280;17546;42.674;23.284;2023-03-18T05:08:26;95104.47;;;9.41;42.26
30819;BME280;17546;42.674;23.284;2023-03-18T05:10:52;95092.69;;;9.25;42.29
30819;BME280;17546;42.674;23.284;2023-03-18T05:13:17;95100.38;;;9.51;42.13
30819;BME280;17546;42.674;23.284;2023-03-18T05:15:43;95096.47;;;9.43;42.18
30819;BME280;17546;42.674;23.284;2023-03-18T05:18:09;95084.56;;;9.37;42.06
30819;BME280;17546;42.674;23.284;2023-03-18T05:20:34;95083.16;;;9.26;42.38
30819;BME280;17546;42.674;23.284;2023-03-18T05:23:00;95080.75;;;9.34;42.26
30819;BME280;17546;42.674;23.284;2023-03-18T05:25:26;95091.03;;;9.48;42.38
30819;BME280;17546;42.674;23.284;2023-03-18T05:27:52;95067.97;;;9.37;42.32
30819;BME280;17546;42.674;23.284;2023-03-18T05:30:18;95076.41;;;9.48;42.33
30819;BME280;17546;42.674;23.284;2023-03-18T05:32:45;95089.88;;;9.55;42.27
30819;BME280;17546;42.674;23.284;2023-03-18T05:35:11;95074.22;;;9.52;42.45
30819;BME280;17546;42.674;23.284;2023-03-18T05:37:37;95071.50;;;9.37;42.65
30819;BME280;17546;42.674;23.284;2023-03-18T05:40:04;95093.06;;;9.33;42.65
30819;BME280;17546;42.674;23.284;2023-03-18T05:42:34;95089.34;;;9.36;42.70
30819;BME280;17546;42.674;23.284;2023-03-18T05:45:00;95092.13;;;9.21;43.02
30819;BME280;17546;42.674;23.284;2023-03-18T05:47:27;95079.38;;;9.24;42.63
30819;BME280;17546;42.674;23.284;2023-03-18T05:49:52;95100.06;;;9.14;43.39
30819;BME280;17546;42.674;23.284;2023-03-18T05:52:18;95094.56;;;9.34;42.90
30819;BME280;17546;42.674;23.284;2023-03-18T05:54:43;95080.53;;;8.87;43.44
30819;BME280;17546;42.674;23.284;2023-03-18T05:57:09;95086.63;;;9.06;42.93
30819;BME280;17546;42.674;23.284;2023-03-18T05:59:34;95103.06;;;8.41;44.30
30819;BME280;17546;42.674;23.284;2023-03-18T06:02:01;95115.59;;;8.66;44.18
30819;BME280;17546;42.674;23.284;2023-03-18T06:04:27;95114.94;;;8.86;43.68
30819;BME280;17546;42.674;23.284;2023-03-18T06:06:53;95116.72;;;8.75;43.77
30819;BME280;17546;42.674;23.284;2023-03-18T06:09:19;95117.78;;;8.77;44.08
30819;BME280;17546;42.674;23.284;2023-03-18T06:11:45;95110.63;;;8.85;43.63
30819;BME280;17546;42.674;23.284;2023-03-18T06:14:11;95130.44;;;8.99;43.83
30819;BME280;17546;42.674;23.284;2023-03-18T06:16:36;95096.16;;;8.90;43.48
30819;BME280;17546;42.674;23.284;2023-03-18T06:19:04;95130.53;;;9.19;43.31
30819;BME280;17546;42.674;23.284;2023-03-18T06:21:29;95129.59;;;8.93;43.42
30819;BME280;17546;42.674;23.284;2023-03-18T06:23:59;95120.38;;;9.10;43.08
30819;BME280;17546;42.674;23.284;2023-03-18T06:26:26;95117.22;;;9.03;42.74
30819;BME280;17546;42.674;23.284;2023-03-18T06:28:51;95130.94;;;9.12;43.01
30819;BME280;17546;42.674;23.284;2023-03-18T06:31:17;95128.91;;;9.27;42.83
30819;BME280;17546;42.674;23.284;2023-03-18T06:33:42;95126.63;;;8.52;43.98
30819;BME280;17546;42.674;23.284;2023-03-18T06:36:08;95115.03;;;7.99;45.28
30819;BME280;17546;42.674;23.284;2023-03-18T06:38:35;95098.19;;;8.36;44.34
30819;BME280;17546;42.674;23.284;2023-03-18T06:41:00;95105.44;;;8.34;44.62
30819;BME280;17546;42.674;23.284;2023-03-18T06:43:26;95075.69;;;8.28;44.46
30819;BME280;17546;42.674;23.284;2023-03-18T06:45:52;95092.34;;;8.58;44.33
30819;BME280;17546;42.674;23.284;2023-03-18T06:48:18;95094.81;;;8.86;44.10
30819;BME280;17546;42.674;23.284;2023-03-18T06:50:45;95068.53;;;8.61;43.76
30819;BME280;17546;42.674;23.284;2023-03-18T06:53:10;95075.91;;;8.40;44.41
30819;BME280;17546;42.674;23.284;2023-03-18T06:55:37;95088.34;;;8.59;44.24
30819;BME280;17546;42.674;23.284;2023-03-18T06:58:03;95098.03;;;8.55;44.62
30819;BME280;17546;42.674;23.284;2023-03-18T07:00:30;95101.97;;;8.78;44.31
30819;BME280;17546;42.674;23.284;2023-03-18T07:02:56;95077.84;;;8.48;44.55
30819;BME280;17546;42.674;23.284;2023-03-18T07:05:21;95061.69;;;8.71;44.07
30819;BME280;17546;42.674;23.284;2023-03-18T07:07:48;95086.13;;;9.08;43.76
30819;BME280;17546;42.674;23.284;2023-03-18T07:10:25;95095.13;;;8.73;44.83
30819;BME280;17546;42.674;23.284;2023-03-18T07:12:52;95097.50;;;8.80;44.78
30819;BME280;17546;42.674;23.284;2023-03-18T07:15:19;95094.25;;;8.97;44.57
30819;BME280;17546;42.674;23.284;2023-03-18T07:17:48;95069.66;;;8.99;44.20
30819;BME280;17546;42.674;23.284;2023-03-18T07:20:15;95073.00;;;9.03;44.35
30819;BME280;17546;42.674;23.284;2023-03-18T07:22:42;95086.25;;;9.49;43.53
30819;BME280;17546;42.674;23.284;2023-03-18T07:25:08;95080.53;;;9.02;43.98
30819;BME280;17546;42.674;23.284;2023-03-18T07:27:34;95091.06;;;9.19;44.05
30819;BME280;17546;42.674;23.284;2023-03-18T07:29:59;95092.97;;;9.27;44.05
30819;BME280;17546;42.674;23.284;2023-03-18T07:32:26;95081.63;;;9.25;43.95
30819;BME280;17546;42.674;23.284;2023-03-18T07:34:51;95077.38;;;8.95;44.03
30819;BME280;17546;42.674;23.284;2023-03-18T07:37:17;95096.94;;;8.76;45.24
30819;BME280;17546;42.674;23.284;2023-03-18T07:39:42;95090.44;;;8.79;45.20
30819;BME280;17546;42.674;23.284;2023-03-18T07:42:09;95097.19;;;9.23;44.47
30819;BME280;17546;42.674;23.284;2023-03-18T07:44:35;95081.47;;;9.14;44.77
30819;BME280;17546;42.674;23.284;2023-03-18T07:47:01;95105.03;;;8.80;45.23
30819;BME280;17546;42.674;23.284;2023-03-18T07:49:28;95105.78;;;8.80;45.06
30819;BME280;17546;42.674;23.284;2023-03-18T07:51:56;95092.78;;;9.31;44.19
30819;BME280;17546;42.674;23.284;2023-03-18T07:54:22;95079.75;;;9.52;43.95
30819;BME280;17546;42.674;23.284;2023-03-18T07:56:49;95101.50;;;9.80;43.57
30819;BME280;17546;42.674;23.284;2023-03-18T07:59:15;95092.63;;;9.55;43.42
30819;BME280;17546;42.674;23.284;2023-03-18T08:01:40;95100.69;;;9.94;43.28
30819;BME280;17546;42.674;23.284;2023-03-18T08:04:06;95088.84;;;9.73;42.78
30819;BME280;17546;42.674;23.284;2023-03-18T08:06:32;95083.59;;;9.75;43.29
30819;BME280;17546;42.674;23.284;2023-03-18T08:08:58;95096.13;;;9.91;42.57
30819;BME280;17546;42.674;23.284;2023-03-18T08:11:27;95106.38;;;10.05;42.54
30819;BME280;17546;42.674;23.284;2023-03-18T08:13:52;95098.91;;;10.32;42.48
30819;BME280;17546;42.674;23.284;2023-03-18T08:16:17;95060.25;;;10.23;42.39
30819;BME280;17546;42.674;23.284;2023-03-18T08:18:43;95065.00;;;10.17;41.86
30819;BME280;17546;42.674;23.284;2023-03-18T08:21:09;95058.50;;;9.99;42.07
30819;BME280;17546;42.674;23.284;2023-03-18T08:23:35;95071.53;;;10.40;42.19
30819;BME280;17546;42.674;23.284;2023-03-18T08:26:00;95077.53;;;10.12;42.56
30819;BME280;17546;42.674;23.284;2023-03-18T08:28:26;95094.16;;;10.59;41.92
30819;BME280;17546;42.674;23.284;2023-03-18T08:30:53;95083.56;;;10.57;42.07
30819;BME280;17546;42.674;23.284;2023-03-18T08:33:20;95108.22;;;10.14;42.85
30819;BME280;17546;42.674;23.284;2023-03-18T08:35:47;95099.16;;;9.72;43.67
30819;BME280;17546;42.674;23.284;2023-03-18T08:38:12;95074.13;;;10.43;42.67
30819;BME280;17546;42.674;23.284;2023-03-18T08:40:39;95090.03;;;10.28;42.27
30819;BME280;17546;42.674;23.284;2023-03-18T08:43:05;95074.63;;;11.00;41.54
30819;BME280;17546;42.674;23.284;2023-03-18T08:45:32;95070.56;;;11.64;41.19
30819;BME280;17546;42.674;23.284;2023-03-18T08:47:58;95033.09;;;11.43;39.79
30819;BME280;17546;42.674;23.284;2023-03-18T08:50:24;95102.78;;;11.93;39.58
30819;BME280;17546;42.674;23.284;2023-03-18T08:52:54;95078.09;;;12.07;39.23
30819;BME280;17546;42.674;23.284;2023-03-18T08:55:21;95084.63;;;12.80;38.49
30819;BME280;17546;42.674;23.284;2023-03-18T08:57:47;95100.13;;;13.32;37.49
30819;BME280;17546;42.674;23.284;2023-03-18T09:00:14;95104.13;;;13.71;37.13
30819;BME280;17546;42.674;23.284;2023-03-18T09:02:40;95102.81;;;13.89;35.71
30819;BME280;17546;42.674;23.284;2023-03-18T09:05:06;95083.69;;;13.29;35.52
30819;BME280;17546;42.674;23.284;2023-03-18T09:07:31;95102.00;;;14.11;35.33
30819;BME280;17546;42.674;23.284;2023-03-18T09:09:57;95101.03;;;14.66;34.57
30819;BME280;17546;42.674;23.284;2023-03-18T09:12:22;95093.97;;;14.54;33.76
30819;BME280;17546;42.674;23.284;2023-03-18T09:14:48;95102.94;;;14.30;33.95
30819;BME280;17546;42.674;23.284;2023-03-18T09:17:14;95099.88;;;15.28;33.41
30819;BME280;17546;42.674;23.284;2023-03-18T09:19:43;95094.16;;;15.75;32.29
30819;BME280;17546;42.674;23.284;2023-03-18T09:22:08;95109.53;;;16.12;32.28
30819;BME280;17546;42.674;23.284;2023-03-18T09:24:34;95080.66;;;15.79;30.87
30819;BME280;17546;42.674;23.284;2023-03-18T09:26:59;95093.00;;;16.14;30.30
30819;BME280;17546;42.674;23.284;2023-03-18T09:29:25;95100.41;;;15.57;30.96
30819;BME280;17546;42.674;23.284;2023-03-18T09:31:51;95093.44;;;16.18;30.78
30819;BME280;17546;42.674;23.284;2023-03-18T09:34:17;95099.31;;;16.39;28.63
30819;BME280;17546;42.674;23.284;2023-03-18T09:36:43;95102.66;;;16.76;29.33
30819;BME280;17546;42.674;23.284;2023-03-18T09:39:16;95090.94;;;16.58;27.51
30819;BME280;17546;42.674;23.284;2023-03-18T09:44:29;95091.03;;;17.09;28.21
30819;BME280;17546;42.674;23.284;2023-03-18T09:47:05;95094.47;;;16.40;27.37
30819;BME280;17546;42.674;23.284;2023-03-18T09:52:26;95095.41;;;16.67;28.35
30819;BME280;17546;42.674;23.284;2023-03-18T09:55:00;95103.81;;;16.23;27.65
30819;BME280;17546;42.674;23.284;2023-03-18T09:57:31;95083.19;;;15.53;28.09
30819;BME280;17546;42.674;23.284;2023-03-18T10:03:26;95092.09;;;15.45;28.81
30819;BME280;17546;42.674;23.284;2023-03-18T10:06:04;95095.75;;;15.65;28.70
30819;BME280;17546;42.674;23.284;2023-03-18T10:11:41;95098.75;;;15.97;28.12
30819;BME280;17546;42.674;23.284;2023-03-18T10:14:32;95082.88;;;16.73;28.07
30819;BME280;17546;42.674;23.284;2023-03-18T10:19:25;95093.13;;;16.65;27.65
30819;BME280;17546;42.674;23.284;2023-03-18T10:22:18;95081.47;;;16.23;26.78
30819;BME280;17546;42.674;23.284;2023-03-18T10:28:08;95091.59;;;15.77;27.51
30819;BME280;17546;42.674;23.284;2023-03-18T10:31:17;95084.28;;;15.74;28.29
30819;BME280;17546;42.674;23.284;2023-03-18T10:34:02;95050.69;;;15.80;28.11
30819;BME280;17546;42.674;23.284;2023-03-18T10:38:57;95068.09;;;15.01;27.23
30819;BME280;17546;42.674;23.284;2023-03-18T10:41:35;95060.53;;;15.86;26.77
30819;BME280;17546;42.674;23.284;2023-03-18T10:44:05;95079.78;;;16.15;27.17
30819;BME280;17546;42.674;23.284;2023-03-18T10:46:38;95079.28;;;15.31;28.10
30819;BME280;17546;42.674;23.284;2023-03-18T10:54:23;95073.09;;;16.42;26.25
30819;BME280;17546;42.674;23.284;2023-03-18T10:56:51;95073.44;;;15.89;25.39
30819;BME280;17546;42.674;23.284;2023-03-18T10:59:20;95073.91;;;14.67;25.98
30819;BME280;17546;42.674;23.284;2023-03-18T11:01:53;95072.94;;;15.61;25.46
30819;BME280;17546;42.674;23.284;2023-03-18T11:04:23;95053.44;;;15.85;25.85
30819;BME280;17546;42.674;23.284;2023-03-18T11:06:54;95071.78;;;16.24;25.85
30819;BME280;17546;42.674;23.284;2023-03-18T11:09:26;95045.25;;;16.12;25.28
30819;BME280;17546;42.674;23.284;2023-03-18T11:11:56;95069.19;;;15.28;26.45
30819;BME280;17546;42.674;23.284;2023-03-18T11:14:28;95066.09;;;15.62;27.41
30819;BME280;17546;42.674;23.284;2023-03-18T11:17:16;95064.09;;;14.49;29.16
30819;BME280;17546;42.674;23.284;2023-03-18T11:19:48;95045.72;;;14.23;29.41
30819;BME280;17546;42.674;23.284;2023-03-18T11:24:45;95078.59;;;13.61;29.70
30819;BME280;17546;42.674;23.284;2023-03-18T11:32:50;95039.53;;;14.47;28.50
30819;BME280;17546;42.674;23.284;2023-03-18T11:35:22;95060.22;;;14.69;28.07
30819;BME280;17546;42.674;23.284;2023-03-18T11:37:50;95060.25;;;14.63;27.88
30819;BME280;17546;42.674;23.284;2023-03-18T11:40:17;95057.50;;;14.99;27.59
30819;BME280;17546;42.674;23.284;2023-03-18T11:42:46;95054.94;;;14.07;27.96
30819;BME280;17546;42.674;23.284;2023-03-18T11:45:37;95048.25;;;14.80;27.61
30819;BME280;17546;42.674;23.284;2023-03-18T11:48:16;95026.25;;;14.71;26.83
30819;BME280;17546;42.674;23.284;2023-03-18T11:54:06;95054.75;;;14.88;27.67
30819;BME280;17546;42.674;23.284;2023-03-18T12:03:03;95061.88;;;15.49;26.04
30819;BME280;17546;42.674;23.284;2023-03-18T12:08:32;95038.50;;;15.28;25.31
30819;BME280;17546;42.674;23.284;2023-03-18T12:27:45;95054.81;;;15.73;26.29
30819;BME280;17546;42.674;23.284;2023-03-18T12:41:57;95050.06;;;15.93;24.87
30819;BME280;17546;42.674;23.284;2023-03-18T12:49:51;95033.09;;;14.70;26.85
30819;BME280;17546;42.674;23.284;2023-03-18T12:52:33;95040.75;;;15.84;25.58
30819;BME280;17546;42.674;23.284;2023-03-18T13:00:06;95029.53;;;15.60;25.84
30819;BME280;17546;42.674;23.284;2023-03-18T13:02:40;95046.22;;;15.41;26.21
30819;BME280;17546;42.674;23.284;2023-03-18T13:05:37;95043.47;;;15.65;25.63
30819;BME280;17546;42.674;23.284;2023-03-18T13:14:18;95038.38;;;16.13;25.48
30819;BME280;17546;42.674;23.284;2023-03-18T13:16:46;95036.09;;;16.11;26.16
30819;BME280;17546;42.674;23.284;2023-03-18T13:19:14;95034.78;;;16.56;24.60
30819;BME280;17546;42.674;23.284;2023-03-18T13:21:43;95049.00;;;15.96;24.80
30819;BME280;17546;42.674;23.284;2023-03-18T13:30:05;95038.25;;;16.62;24.75
30819;BME280;17546;42.674;23.284;2023-03-18T13:43:24;95042.56;;;15.52;25.74
30819;BME280;17546;42.674;23.284;2023-03-18T13:45:54;95045.06;;;15.85;24.67
30819;BME280;17546;42.674;23.284;2023-03-18T13:48:29;95038.63;;;16.34;24.40
30819;BME280;17546;42.674;23.284;2023-03-18T13:50:58;95030.00;;;16.13;24.57
30819;BME280;17546;42.674;23.284;2023-03-18T13:53:25;95030.22;;;16.15;23.93
30819;BME280;17546;42.674;23.284;2023-03-18T13:58:26;94996.19;;;14.88;25.07
30819;BME280;17546;42.674;23.284;2023-03-18T14:03:31;95009.50;;;16.05;24.48
30819;BME280;17546;42.674;23.284;2023-03-18T14:13:38;95023.59;;;15.69;24.31
30819;BME280;17546;42.674;23.284;2023-03-18T14:16:12;95021.50;;;16.43;24.01
30819;BME280;17546;42.674;23.284;2023-03-18T14:18:38;95015.22;;;16.56;24.41
30819;BME280;17546;42.674;23.284;2023-03-18T14:21:22;95022.69;;;16.29;23.73
30819;BME280;17546;42.674;23.284;2023-03-18T14:24:21;95032.13;;;15.82;24.39
30819;BME280;17546;42.674;23.284;2023-03-18T14:29:25;95030.84;;;15.59;24.38
30819;BME280;17546;42.674;23.284;2023-03-18T14:31:56;95027.91;;;14.85;24.67
30819;BME280;17546;42.674;23.284;2023-03-18T14:34:25;95023.25;;;15.54;24.50
30819;BME280;17546;42.674;23.284;2023-03-18T14:42:31;95013.16;;;15.75;23.85
30819;BME280;17546;42.674;23.284;2023-03-18T14:47:50;95029.94;;;16.19;30.17
30819;BME280;17546;42.674;23.284;2023-03-18T14:50:44;95029.69;;;16.36;24.83
30819;BME280;17546;42.674;23.284;2023-03-18T14:56:23;95012.72;;;16.71;24.63
30819;BME280;17546;42.674;23.284;2023-03-18T14:58:51;95027.00;;;16.87;24.42
30819;BME280;17546;42.674;23.284;2023-03-18T15:01:44;95023.56;;;16.94;23.89
30819;BME280;17546;42.674;23.284;2023-03-18T15:04:17;95012.41;;;16.56;23.72
30819;BME280;17546;42.674;23.284;2023-03-18T15:06:49;95027.06;;;16.05;23.60
30819;BME280;17546;42.674;23.284;2023-03-18T15:09:24;95004.69;;;15.01;23.88
30819;BME280;17546;42.674;23.284;2023-03-18T15:11:52;95008.81;;;15.25;24.06
30819;BME280;17546;42.674;23.284;2023-03-18T15:14:24;95005.44;;;15.32;23.99
30819;BME280;17546;42.674;23.284;2023-03-18T15:16:59;94992.00;;;15.85;23.65
30819;BME280;17546;42.674;23.284;2023-03-18T15:19:27;95020.31;;;15.70;23.49
30819;BME280;17546;42.674;23.284;2023-03-18T15:21:53;95035.50;;;16.00;23.78
30819;BME280;17546;42.674;23.284;2023-03-18T15:24:22;95042.25;;;15.85;24.00
30819;BME280;17546;42.674;23.284;2023-03-18T15:27:00;95047.38;;;15.81;24.00
30819;BME280;17546;42.674;23.284;2023-03-18T15:29:34;95031.03;;;15.36;24.52